Terminal Aerodrome Forecast
Issued by NWS

Home | Current Version | Previous Version | Text Only | Print | Product List | Glossary On
Versions: 1 2 3 4 5 6 7 8 9 10 11 12 13 14 15 16 17 18 19 20
923
FTUS44 KTSA 191727
TAFMLC
TAF
KMLC 191727Z 1918/2018 17006KT P6SM OVC011
     FM192200 15011KT P6SM BKN025
     FM200100 13011KT 4SM BR VCSH OVC015
     FM200500 13007KT 4SM BR VCTS OVC015CB
      TEMPO 2006/2010 2SM -TSRA OVC007CB
     FM201100 17010KT 4SM -RA BR OVC007=

USA.gov is the U.S. government's official web portal to all federal, state and local government web resources and services.